sensor_id;sensor_type;location;lat;lon;timestamp;pressure;altitude;pressure_sealevel;temperature;humidity
70909;BME280;58554;52.006;5.926;2022-08-21T00:00:45;100878.66;;;20.29;51.93
70909;BME280;58554;52.006;5.926;2022-08-21T00:03:12;100876.13;;;20.27;52.28
70909;BME280;58554;52.006;5.926;2022-08-21T00:05:41;100878.97;;;20.26;52.10
70909;BME280;58554;52.006;5.926;2022-08-21T00:08:13;100873.59;;;20.26;52.52
70909;BME280;58554;52.006;5.926;2022-08-21T00:10:40;100870.22;;;20.23;52.32
70909;BME280;58554;52.006;5.926;2022-08-21T00:13:08;100873.03;;;20.22;52.29
70909;BME280;58554;52.006;5.926;2022-08-21T00:15:36;100877.56;;;20.21;52.33
70909;BME280;58554;52.006;5.926;2022-08-21T00:18:05;100875.03;;;20.20;52.36
70909;BME280;58554;52.006;5.926;2022-08-21T00:20:35;100867.28;;;20.17;52.57
70909;BME280;58554;52.006;5.926;2022-08-21T00:23:01;100874.47;;;20.16;52.50
70909;BME280;58554;52.006;5.926;2022-08-21T00:25:31;100868.41;;;20.14;52.47
70909;BME280;58554;52.006;5.926;2022-08-21T00:27:57;100865.03;;;20.12;52.50
70909;BME280;58554;52.006;5.926;2022-08-21T00:30:25;100866.16;;;20.10;52.50
70909;BME280;58554;52.006;5.926;2022-08-21T00:32:53;100866.16;;;20.10;52.50
70909;BME280;58554;52.006;5.926;2022-08-21T00:35:25;100874.34;;;20.08;52.56
70909;BME280;58554;52.006;5.926;2022-08-21T00:37:53;100869.31;;;20.05;52.49
70909;BME280;58554;52.006;5.926;2022-08-21T00:40:23;100874.81;;;20.03;52.47
70909;BME280;58554;52.006;5.926;2022-08-21T00:42:55;100872.25;;;20.02;52.63
70909;BME280;58554;52.006;5.926;2022-08-21T00:45:23;100870.44;;;20.02;52.71
70909;BME280;58554;52.006;5.926;2022-08-21T00:47:51;100867.19;;;19.99;52.48
70909;BME280;58554;52.006;5.926;2022-08-21T00:50:18;100862.84;;;19.98;52.51
70909;BME280;58554;52.006;5.926;2022-08-21T00:52:45;100864.66;;;19.97;52.66
70909;BME280;58554;52.006;5.926;2022-08-21T00:55:13;100870.19;;;19.96;52.70
70909;BME280;58554;52.006;5.926;2022-08-21T00:57:44;100859.59;;;19.94;52.43
70909;BME280;58554;52.006;5.926;2022-08-21T01:00:22;100857.06;;;19.93;52.56
70909;BME280;58554;52.006;5.926;2022-08-21T01:02:52;100858.06;;;19.92;52.62
70909;BME280;58554;52.006;5.926;2022-08-21T01:05:18;100862.72;;;19.90;52.54
70909;BME280;58554;52.006;5.926;2022-08-21T01:07:44;100858.47;;;19.87;52.65
70909;BME280;58554;52.006;5.926;2022-08-21T01:10:12;100853.28;;;19.86;52.65
70909;BME280;58554;52.006;5.926;2022-08-21T01:12:40;100847.03;;;19.85;52.63
70909;BME280;58554;52.006;5.926;2022-08-21T01:15:07;100849.03;;;19.83;52.71
70909;BME280;58554;52.006;5.926;2022-08-21T01:17:38;100850.88;;;19.82;52.71
70909;BME280;58554;52.006;5.926;2022-08-21T01:20:07;100850.88;;;19.82;52.72
70909;BME280;58554;52.006;5.926;2022-08-21T01:22:38;100861.59;;;19.82;52.53
70909;BME280;58554;52.006;5.926;2022-08-21T01:25:07;100859.94;;;19.81;52.61
70909;BME280;58554;52.006;5.926;2022-08-21T01:27:36;100857.38;;;19.80;52.71
70909;BME280;58554;52.006;5.926;2022-08-21T01:30:09;100855.84;;;19.77;52.82
70909;BME280;58554;52.006;5.926;2022-08-21T01:32:39;100856.81;;;19.76;52.43
70909;BME280;58554;52.006;5.926;2022-08-21T01:35:08;100862.19;;;19.76;52.84
70909;BME280;58554;52.006;5.926;2022-08-21T01:37:38;100864.16;;;19.74;52.76
70909;BME280;58554;52.006;5.926;2022-08-21T01:40:06;100862.50;;;19.73;52.72
70909;BME280;58554;52.006;5.926;2022-08-21T01:42:34;100866.28;;;19.71;52.67
70909;BME280;58554;52.006;5.926;2022-08-21T01:45:01;100865.59;;;19.69;52.59
70909;BME280;58554;52.006;5.926;2022-08-21T01:47:27;100863.91;;;19.68;52.80
70909;BME280;58554;52.006;5.926;2022-08-21T01:49:54;100864.91;;;19.67;52.79
70909;BME280;58554;52.006;5.926;2022-08-21T01:52:20;100857.69;;;19.67;52.90
70909;BME280;58554;52.006;5.926;2022-08-21T01:54:49;100856.16;;;19.65;53.02
70909;BME280;58554;52.006;5.926;2022-08-21T01:57:16;100856.28;;;19.63;52.88
70909;BME280;58554;52.006;5.926;2022-08-21T01:59:43;100854.59;;;19.62;52.82
70909;BME280;58554;52.006;5.926;2022-08-21T02:02:09;100853.88;;;19.60;53.10
70909;BME280;58554;52.006;5.926;2022-08-21T02:04:36;100842.59;;;19.56;53.11
70909;BME280;58554;52.006;5.926;2022-08-21T02:07:03;100843.69;;;19.54;52.94
70909;BME280;58554;52.006;5.926;2022-08-21T02:09:30;100842.16;;;19.51;52.98
70909;BME280;58554;52.006;5.926;2022-08-21T02:11:59;100843.16;;;19.50;52.88
70909;BME280;58554;52.006;5.926;2022-08-21T02:14:25;100841.59;;;19.48;53.18
70909;BME280;58554;52.006;5.926;2022-08-21T02:16:52;100840.91;;;19.46;53.08
70909;BME280;58554;52.006;5.926;2022-08-21T02:19:18;100840.91;;;19.46;53.13
70909;BME280;58554;52.006;5.926;2022-08-21T02:21:45;100835.84;;;19.42;53.21
70909;BME280;58554;52.006;5.926;2022-08-21T02:24:11;100841.47;;;19.39;53.37
70909;BME280;58554;52.006;5.926;2022-08-21T02:26:38;100837.94;;;19.39;53.29
70909;BME280;58554;52.006;5.926;2022-08-21T02:29:08;100830.91;;;19.38;53.53
70909;BME280;58554;52.006;5.926;2022-08-21T02:31:34;100835.41;;;19.37;53.54
70909;BME280;58554;52.006;5.926;2022-08-21T02:34:01;100829.19;;;19.37;53.42
70909;BME280;58554;52.006;5.926;2022-08-21T02:36:28;100841.06;;;19.34;53.36
70909;BME280;58554;52.006;5.926;2022-08-21T02:38:54;100828.81;;;19.32;53.85
70909;BME280;58554;52.006;5.926;2022-08-21T02:41:22;100832.47;;;19.31;53.60
70909;BME280;58554;52.006;5.926;2022-08-21T02:43:49;100828.38;;;19.27;53.66
70909;BME280;58554;52.006;5.926;2022-08-21T02:46:20;100829.81;;;19.21;53.87
70909;BME280;58554;52.006;5.926;2022-08-21T02:48:46;100831.91;;;19.17;53.96
70909;BME280;58554;52.006;5.926;2022-08-21T02:51:15;100828.66;;;19.14;54.16
70909;BME280;58554;52.006;5.926;2022-08-21T02:53:45;100826.28;;;19.11;54.25
70909;BME280;58554;52.006;5.926;2022-08-21T02:56:16;100820.75;;;19.12;54.23
70909;BME280;58554;52.006;5.926;2022-08-21T02:58:46;100822.47;;;19.13;54.33
70909;BME280;58554;52.006;5.926;2022-08-21T03:01:20;100822.72;;;19.10;54.19
70909;BME280;58554;52.006;5.926;2022-08-21T03:03:47;100821.91;;;19.10;54.26
70909;BME280;58554;52.006;5.926;2022-08-21T03:06:15;100820.22;;;19.09;54.38
70909;BME280;58554;52.006;5.926;2022-08-21T03:08:43;100810.59;;;19.06;54.31
70909;BME280;58554;52.006;5.926;2022-08-21T03:11:11;100817.81;;;19.06;54.41
70909;BME280;58554;52.006;5.926;2022-08-21T03:13:39;100822.47;;;19.04;54.34
70909;BME280;58554;52.006;5.926;2022-08-21T03:16:06;100817.25;;;19.02;54.47
70909;BME280;58554;52.006;5.926;2022-08-21T03:18:36;100813.31;;;18.96;54.63
70909;BME280;58554;52.006;5.926;2022-08-21T03:21:04;100817.97;;;18.94;54.90
70909;BME280;58554;52.006;5.926;2022-08-21T03:23:30;100815.41;;;18.93;54.91
70909;BME280;58554;52.006;5.926;2022-08-21T03:25:57;100810.06;;;18.93;54.80
70909;BME280;58554;52.006;5.926;2022-08-21T03:28:24;100811.78;;;18.94;55.07
70909;BME280;58554;52.006;5.926;2022-08-21T03:30:52;100810.75;;;18.95;55.10
70909;BME280;58554;52.006;5.926;2022-08-21T03:33:19;100810.63;;;18.96;55.09
70909;BME280;58554;52.006;5.926;2022-08-21T03:35:54;100809.50;;;18.99;55.21
70909;BME280;58554;52.006;5.926;2022-08-21T03:38:25;100811.03;;;19.01;54.81
70909;BME280;58554;52.006;5.926;2022-08-21T03:40:53;100804.84;;;19.01;54.81
70909;BME280;58554;52.006;5.926;2022-08-21T03:43:19;100818.09;;;19.02;54.65
70909;BME280;58554;52.006;5.926;2022-08-21T03:45:46;100812.88;;;19.01;54.88
70909;BME280;58554;52.006;5.926;2022-08-21T03:48:12;100812.19;;;18.99;55.03
70909;BME280;58554;52.006;5.926;2022-08-21T03:50:41;100812.19;;;18.99;54.84
70909;BME280;58554;52.006;5.926;2022-08-21T03:53:13;100815.69;;;18.99;55.02
70909;BME280;58554;52.006;5.926;2022-08-21T03:55:42;100811.34;;;18.98;55.08
70909;BME280;58554;52.006;5.926;2022-08-21T03:58:08;100810.63;;;18.96;55.10
70909;BME280;58554;52.006;5.926;2022-08-21T04:00:35;100809.63;;;18.97;55.21
70909;BME280;58554;52.006;5.926;2022-08-21T04:03:01;100809.63;;;18.97;55.23
70909;BME280;58554;52.006;5.926;2022-08-21T04:05:28;100813.19;;;18.98;55.24
70909;BME280;58554;52.006;5.926;2022-08-21T04:07:55;100812.31;;;18.97;55.14
70909;BME280;58554;52.006;5.926;2022-08-21T04:10:28;100812.47;;;18.96;55.11
70909;BME280;58554;52.006;5.926;2022-08-21T04:12:57;100807.25;;;18.94;55.34
70909;BME280;58554;52.006;5.926;2022-08-21T04:15:25;100802.84;;;18.93;55.14
70909;BME280;58554;52.006;5.926;2022-08-21T04:17:53;100804.00;;;18.91;55.26
70909;BME280;58554;52.006;5.926;2022-08-21T04:20:20;100797.22;;;18.87;55.50
70909;BME280;58554;52.006;5.926;2022-08-21T04:22:48;100802.72;;;18.85;55.33
70909;BME280;58554;52.006;5.926;2022-08-21T04:25:16;100802.00;;;18.83;55.30
70909;BME280;58554;52.006;5.926;2022-08-21T04:27:47;100794.28;;;18.80;55.55
70909;BME280;58554;52.006;5.926;2022-08-21T04:30:15;100798.78;;;18.79;55.56
70909;BME280;58554;52.006;5.926;2022-08-21T04:32:42;100800.91;;;18.76;55.54
70909;BME280;58554;52.006;5.926;2022-08-21T04:35:10;100804.00;;;18.71;55.57
70909;BME280;58554;52.006;5.926;2022-08-21T04:37:37;100792.97;;;18.65;55.49
70909;BME280;58554;52.006;5.926;2022-08-21T04:40:05;100796.22;;;18.58;55.58
70909;BME280;58554;52.006;5.926;2022-08-21T04:42:41;100789.69;;;18.51;55.53
70909;BME280;58554;52.006;5.926;2022-08-21T04:45:18;100799.28;;;18.44;55.81
70909;BME280;58554;52.006;5.926;2022-08-21T04:47:47;100804.03;;;18.31;55.87
70909;BME280;58554;52.006;5.926;2022-08-21T04:50:15;100801.34;;;18.21;56.18
70909;BME280;58554;52.006;5.926;2022-08-21T04:52:42;100794.41;;;18.09;56.19
70909;BME280;58554;52.006;5.926;2022-08-21T04:55:10;100800.72;;;17.98;56.55
70909;BME280;58554;52.006;5.926;2022-08-21T04:57:37;100802.63;;;17.86;56.66
70909;BME280;58554;52.006;5.926;2022-08-21T05:00:07;100800.16;;;17.73;56.75
70909;BME280;58554;52.006;5.926;2022-08-21T05:02:37;100801.94;;;17.63;57.12
70909;BME280;58554;52.006;5.926;2022-08-21T05:05:04;100808.06;;;17.54;57.36
70909;BME280;58554;52.006;5.926;2022-08-21T05:07:33;100811.41;;;17.46;57.75
70909;BME280;58554;52.006;5.926;2022-08-21T05:10:00;100805.03;;;17.37;57.69
70909;BME280;58554;52.006;5.926;2022-08-21T05:12:27;100812.13;;;17.27;57.83
70909;BME280;58554;52.006;5.926;2022-08-21T05:14:54;100810.09;;;17.19;58.21
70909;BME280;58554;52.006;5.926;2022-08-21T05:17:20;100808.06;;;17.12;58.39
70909;BME280;58554;52.006;5.926;2022-08-21T05:19:49;100820.28;;;17.05;58.61
70909;BME280;58554;52.006;5.926;2022-08-21T05:22:19;100819.78;;;16.99;59.15
70909;BME280;58554;52.006;5.926;2022-08-21T05:24:46;100822.97;;;16.93;59.33
70909;BME280;58554;52.006;5.926;2022-08-21T05:27:13;100816.47;;;16.86;59.17
70909;BME280;58554;52.006;5.926;2022-08-21T05:29:39;100830.28;;;16.80;59.38
70909;BME280;58554;52.006;5.926;2022-08-21T05:32:09;100832.34;;;16.76;59.69
70909;BME280;58554;52.006;5.926;2022-08-21T05:34:37;100831.75;;;16.73;59.76
70909;BME280;58554;52.006;5.926;2022-08-21T05:37:07;100838.19;;;16.70;59.79
70909;BME280;58554;52.006;5.926;2022-08-21T05:39:36;100842.97;;;16.67;60.08
70909;BME280;58554;52.006;5.926;2022-08-21T05:42:03;100838.69;;;16.64;60.22
70909;BME280;58554;52.006;5.926;2022-08-21T05:44:29;100841.53;;;16.63;60.21
70909;BME280;58554;52.006;5.926;2022-08-21T05:47:01;100841.75;;;16.59;60.32
70909;BME280;58554;52.006;5.926;2022-08-21T05:49:28;100841.03;;;16.57;60.67
70909;BME280;58554;52.006;5.926;2022-08-21T05:51:55;100843.97;;;16.54;60.82
70909;BME280;58554;52.006;5.926;2022-08-21T05:54:24;100842.25;;;16.53;60.88
70909;BME280;58554;52.006;5.926;2022-08-21T05:56:51;100838.84;;;16.51;61.07
70909;BME280;58554;52.006;5.926;2022-08-21T05:59:17;100843.34;;;16.51;61.15
70909;BME280;58554;52.006;5.926;2022-08-21T06:01:44;100840.81;;;16.49;61.28
70909;BME280;58554;52.006;5.926;2022-08-21T06:04:11;100840.81;;;16.49;61.48
70909;BME280;58554;52.006;5.926;2022-08-21T06:06:38;100836.69;;;16.45;61.60
70909;BME280;58554;52.006;5.926;2022-08-21T06:09:04;100839.63;;;16.42;61.74
70909;BME280;58554;52.006;5.926;2022-08-21T06:11:34;100839.63;;;16.42;61.74
70909;BME280;58554;52.006;5.926;2022-08-21T06:14:01;100833.28;;;16.43;61.93
70909;BME280;58554;52.006;5.926;2022-08-21T06:16:27;100827.00;;;16.44;62.03
70909;BME280;58554;52.006;5.926;2022-08-21T06:18:54;100824.19;;;16.46;62.38
70909;BME280;58554;52.006;5.926;2022-08-21T06:21:20;100831.34;;;16.45;62.34
70909;BME280;58554;52.006;5.926;2022-08-21T06:23:47;100842.75;;;16.47;62.46
70909;BME280;58554;52.006;5.926;2022-08-21T06:26:14;100833.78;;;16.48;62.40
70909;BME280;58554;52.006;5.926;2022-08-21T06:28:43;100838.97;;;16.50;62.53
70909;BME280;58554;52.006;5.926;2022-08-21T06:31:12;100841.53;;;16.51;62.80
70909;BME280;58554;52.006;5.926;2022-08-21T06:33:40;100837.03;;;16.52;62.82
70909;BME280;58554;52.006;5.926;2022-08-21T06:36:07;100835.09;;;16.54;62.68
70909;BME280;58554;52.006;5.926;2022-08-21T06:38:34;100838.38;;;16.57;62.79
70909;BME280;58554;52.006;5.926;2022-08-21T06:41:02;100837.13;;;16.62;62.81
70909;BME280;58554;52.006;5.926;2022-08-21T06:43:29;100834.22;;;16.65;62.69
70909;BME280;58554;52.006;5.926;2022-08-21T06:45:58;100847.19;;;16.69;62.82
70909;BME280;58554;52.006;5.926;2022-08-21T06:48:25;100833.72;;;16.71;62.86
70909;BME280;58554;52.006;5.926;2022-08-21T06:50:52;100844.16;;;16.74;62.91
70909;BME280;58554;52.006;5.926;2022-08-21T06:53:20;100840.25;;;16.78;62.85
70909;BME280;58554;52.006;5.926;2022-08-21T06:55:47;100840.72;;;16.83;63.05
70909;BME280;58554;52.006;5.926;2022-08-21T06:58:15;100843.16;;;16.86;63.40
70909;BME280;58554;52.006;5.926;2022-08-21T07:00:45;100835.75;;;16.90;63.23
70909;BME280;58554;52.006;5.926;2022-08-21T07:03:20;100843.38;;;16.94;63.29
70909;BME280;58554;52.006;5.926;2022-08-21T07:05:50;100846.66;;;16.98;63.21
70909;BME280;58554;52.006;5.926;2022-08-21T07:08:17;100842.88;;;17.00;63.16
70909;BME280;58554;52.006;5.926;2022-08-21T07:10:44;100850.63;;;17.04;63.20
70909;BME280;58554;52.006;5.926;2022-08-21T07:13:12;100850.09;;;17.10;63.19
70909;BME280;58554;52.006;5.926;2022-08-21T07:15:38;100848.75;;;17.15;63.24
70909;BME280;58554;52.006;5.926;2022-08-21T07:18:05;100837.44;;;17.23;63.37
70909;BME280;58554;52.006;5.926;2022-08-21T07:20:35;100837.63;;;17.31;63.36
70909;BME280;58554;52.006;5.926;2022-08-21T07:23:04;100834.28;;;17.39;63.10
70909;BME280;58554;52.006;5.926;2022-08-21T07:25:33;100830.97;;;17.47;63.22
70909;BME280;58554;52.006;5.926;2022-08-21T07:28:00;100834.66;;;17.55;63.20
70909;BME280;58554;52.006;5.926;2022-08-21T07:30:27;100835.69;;;17.64;63.11
70909;BME280;58554;52.006;5.926;2022-08-21T07:32:54;100832.50;;;17.70;63.24
70909;BME280;58554;52.006;5.926;2022-08-21T07:35:22;100838.06;;;17.78;63.26
70909;BME280;58554;52.006;5.926;2022-08-21T07:37:52;100831.06;;;17.87;63.17
70909;BME280;58554;52.006;5.926;2022-08-21T07:40:18;100830.41;;;17.95;63.11
70909;BME280;58554;52.006;5.926;2022-08-21T07:42:48;100828.63;;;18.05;63.11
70909;BME280;58554;52.006;5.926;2022-08-21T07:45:14;100825.41;;;18.11;62.93
70909;BME280;58554;52.006;5.926;2022-08-21T07:47:41;100833.59;;;18.19;62.65
70909;BME280;58554;52.006;5.926;2022-08-21T07:50:08;100825.03;;;18.26;63.02
70909;BME280;58554;52.006;5.926;2022-08-21T07:52:35;100825.19;;;18.34;62.86
70909;BME280;58554;52.006;5.926;2022-08-21T07:55:05;100826.31;;;18.41;62.90
70909;BME280;58554;52.006;5.926;2022-08-21T07:57:33;100824.66;;;18.50;62.85
70909;BME280;58554;52.006;5.926;2022-08-21T07:59:59;100832.00;;;18.57;62.57
70909;BME280;58554;52.006;5.926;2022-08-21T08:02:28;100820.72;;;18.64;62.60
70909;BME280;58554;52.006;5.926;2022-08-21T08:04:58;100821.88;;;18.71;62.65
70909;BME280;58554;52.006;5.926;2022-08-21T08:07:25;100824.88;;;18.77;62.56
70909;BME280;58554;52.006;5.926;2022-08-21T08:09:51;100827.00;;;18.84;62.30
70909;BME280;58554;52.006;5.926;2022-08-21T08:12:20;100831.09;;;18.88;62.74
70909;BME280;58554;52.006;5.926;2022-08-21T08:14:47;100833.22;;;18.94;62.45
70909;BME280;58554;52.006;5.926;2022-08-21T08:17:13;100823.47;;;19.02;62.60
70909;BME280;58554;52.006;5.926;2022-08-21T08:19:40;100822.91;;;19.09;62.60
70909;BME280;58554;52.006;5.926;2022-08-21T08:22:12;100819.34;;;19.18;62.67
70909;BME280;58554;52.006;5.926;2022-08-21T08:24:40;100831.91;;;19.27;62.60
70909;BME280;58554;52.006;5.926;2022-08-21T08:27:06;100824.16;;;19.34;62.49
70909;BME280;58554;52.006;5.926;2022-08-21T08:29:35;100822.69;;;19.39;62.50
70909;BME280;58554;52.006;5.926;2022-08-21T08:32:03;100822.13;;;19.46;62.18
70909;BME280;58554;52.006;5.926;2022-08-21T08:34:30;100814.38;;;19.52;62.19
70909;BME280;58554;52.006;5.926;2022-08-21T08:36:57;100819.88;;;19.60;62.07
70909;BME280;58554;52.006;5.926;2022-08-21T08:39:23;100817.47;;;19.67;62.33
70909;BME280;58554;52.006;5.926;2022-08-21T08:41:56;100811.50;;;19.73;62.18
70909;BME280;58554;52.006;5.926;2022-08-21T08:44:29;100811.75;;;19.80;62.09
70909;BME280;58554;52.006;5.926;2022-08-21T08:46:59;100804.97;;;19.86;61.75
70909;BME280;58554;52.006;5.926;2022-08-21T08:49:31;100806.19;;;19.91;62.07
70909;BME280;58554;52.006;5.926;2022-08-21T08:52:07;100808.47;;;19.96;61.77
70909;BME280;58554;52.006;5.926;2022-08-21T08:54:46;100806.03;;;20.02;61.59
70909;BME280;58554;52.006;5.926;2022-08-21T08:57:20;100805.13;;;20.12;61.48
70909;BME280;58554;52.006;5.926;2022-08-21T08:59:52;100803.53;;;20.19;61.22
70909;BME280;58554;52.006;5.926;2022-08-21T09:02:24;100810.00;;;20.26;61.35
70909;BME280;58554;52.006;5.926;2022-08-21T09:04:51;100805.88;;;20.32;61.05
70909;BME280;58554;52.006;5.926;2022-08-21T09:07:27;100807.09;;;20.37;61.22
70909;BME280;58554;52.006;5.926;2022-08-21T09:10:12;100802.69;;;20.46;60.78
70909;BME280;58554;52.006;5.926;2022-08-21T09:12:51;100805.31;;;20.56;60.40
70909;BME280;58554;52.006;5.926;2022-08-21T09:15:29;100794.81;;;20.62;59.96
70909;BME280;58554;52.006;5.926;2022-08-21T09:18:19;100805.25;;;20.66;59.87
70909;BME280;58554;52.006;5.926;2022-08-21T09:21:06;100795.19;;;20.68;59.47
70909;BME280;58554;52.006;5.926;2022-08-21T09:23:52;100797.56;;;20.71;59.37
70909;BME280;58554;52.006;5.926;2022-08-21T09:26:50;100789.88;;;20.76;59.21
70909;BME280;58554;52.006;5.926;2022-08-21T09:29:30;100799.19;;;20.81;58.94
70909;BME280;58554;52.006;5.926;2022-08-21T09:31:59;100787.97;;;20.86;59.08
70909;BME280;58554;52.006;5.926;2022-08-21T09:34:30;100791.72;;;20.93;58.76
70909;BME280;58554;52.006;5.926;2022-08-21T09:36:58;100787.88;;;20.96;58.38
70909;BME280;58554;52.006;5.926;2022-08-21T09:39:27;100774.13;;;20.99;58.23
70909;BME280;58554;52.006;5.926;2022-08-21T09:41:57;100786.41;;;21.01;58.06
70909;BME280;58554;52.006;5.926;2022-08-21T09:44:26;100785.09;;;21.06;58.08
70909;BME280;58554;52.006;5.926;2022-08-21T09:46:56;100785.63;;;21.09;58.02
70909;BME280;58554;52.006;5.926;2022-08-21T09:49:33;100792.06;;;21.16;57.85
70909;BME280;58554;52.006;5.926;2022-08-21T09:52:04;100789.31;;;21.26;57.33
70909;BME280;58554;52.006;5.926;2022-08-21T09:54:41;100800.81;;;21.36;56.99
70909;BME280;58554;52.006;5.926;2022-08-21T09:57:16;100794.47;;;21.46;56.69
70909;BME280;58554;52.006;5.926;2022-08-21T09:59:49;100799.91;;;21.54;56.54
70909;BME280;58554;52.006;5.926;2022-08-21T10:02:26;100799.66;;;21.65;56.26
70909;BME280;58554;52.006;5.926;2022-08-21T10:05:00;100799.06;;;21.79;56.10
70909;BME280;58554;52.006;5.926;2022-08-21T10:07:31;100794.75;;;21.95;55.62
70909;BME280;58554;52.006;5.926;2022-08-21T10:10:03;100791.31;;;22.11;55.25
70909;BME280;58554;52.006;5.926;2022-08-21T10:12:44;100788.50;;;22.29;54.93
70909;BME280;58554;52.006;5.926;2022-08-21T10:15:24;100798.81;;;22.41;54.54
70909;BME280;58554;52.006;5.926;2022-08-21T10:18:10;100790.94;;;22.56;54.21
70909;BME280;58554;52.006;5.926;2022-08-21T10:20:56;100786.56;;;22.72;53.54
70909;BME280;58554;52.006;5.926;2022-08-21T10:23:38;100790.81;;;22.82;52.95
70909;BME280;58554;52.006;5.926;2022-08-21T10:26:25;100784.59;;;22.98;52.84
70909;BME280;58554;52.006;5.926;2022-08-21T10:29:05;100779.38;;;23.13;52.40
70909;BME280;58554;52.006;5.926;2022-08-21T10:31:49;100785.44;;;23.23;52.35
70909;BME280;58554;52.006;5.926;2022-08-21T10:34:37;100788.97;;;23.24;51.79
70909;BME280;58554;52.006;5.926;2022-08-21T10:37:25;100780.88;;;23.24;51.22
70909;BME280;58554;52.006;5.926;2022-08-21T10:40:11;100771.78;;;23.25;51.04
70909;BME280;58554;52.006;5.926;2022-08-21T10:42:52;100779.00;;;23.24;51.06
70909;BME280;58554;52.006;5.926;2022-08-21T10:45:39;100784.75;;;23.30;50.70
70909;BME280;58554;52.006;5.926;2022-08-21T10:48:22;100775.97;;;23.36;50.79
70909;BME280;58554;52.006;5.926;2022-08-21T10:50:59;100773.59;;;23.41;50.57
70909;BME280;58554;52.006;5.926;2022-08-21T10:53:45;100778.13;;;23.49;50.15
70909;BME280;58554;52.006;5.926;2022-08-21T10:56:23;100778.16;;;23.57;50.35
70909;BME280;58554;52.006;5.926;2022-08-21T10:59:20;100781.97;;;23.62;49.75
70909;BME280;58554;52.006;5.926;2022-08-21T11:01:59;100785.34;;;23.64;49.56
70909;BME280;58554;52.006;5.926;2022-08-21T11:04:39;100777.59;;;23.70;49.63
70909;BME280;58554;52.006;5.926;2022-08-21T11:07:20;100779.44;;;23.77;49.95
70909;BME280;58554;52.006;5.926;2022-08-21T11:09:59;100778.03;;;23.90;48.94
70909;BME280;58554;52.006;5.926;2022-08-21T11:12:39;100779.69;;;23.99;48.83
70909;BME280;58554;52.006;5.926;2022-08-21T11:15:19;100773.75;;;24.03;48.48
70909;BME280;58554;52.006;5.926;2022-08-21T11:18:07;100779.63;;;24.07;48.09
70909;BME280;58554;52.006;5.926;2022-08-21T11:20:46;100771.81;;;24.12;48.16
70909;BME280;58554;52.006;5.926;2022-08-21T11:23:22;100773.34;;;24.23;47.92
70909;BME280;58554;52.006;5.926;2022-08-21T11:26:01;100768.75;;;24.32;47.97
70909;BME280;58554;52.006;5.926;2022-08-21T11:28:35;100774.25;;;24.38;47.33
70909;BME280;58554;52.006;5.926;2022-08-21T11:31:21;100762.75;;;24.44;47.19
70909;BME280;58554;52.006;5.926;2022-08-21T11:34:10;100762.19;;;24.49;47.31
70909;BME280;58554;52.006;5.926;2022-08-21T11:36:52;100754.56;;;24.53;46.98
70909;BME280;58554;52.006;5.926;2022-08-21T11:39:32;100754.84;;;24.58;46.67
70909;BME280;58554;52.006;5.926;2022-08-21T11:42:15;100752.66;;;24.61;46.05
70909;BME280;58554;52.006;5.926;2022-08-21T11:44:56;100761.25;;;24.65;45.85
70909;BME280;58554;52.006;5.926;2022-08-21T11:47:48;100751.94;;;24.68;45.91
70909;BME280;58554;52.006;5.926;2022-08-21T11:50:25;100751.19;;;24.74;46.00
70909;BME280;58554;52.006;5.926;2022-08-21T11:52:59;100751.13;;;24.82;45.77
70909;BME280;58554;52.006;5.926;2022-08-21T11:55:35;100745.16;;;24.87;45.36
70909;BME280;58554;52.006;5.926;2022-08-21T11:58:14;100737.56;;;24.90;45.37
70909;BME280;58554;52.006;5.926;2022-08-21T12:00:48;100748.84;;;24.94;45.59
70909;BME280;58554;52.006;5.926;2022-08-21T12:03:25;100737.69;;;24.97;45.48
70909;BME280;58554;52.006;5.926;2022-08-21T12:05:56;100747.78;;;25.03;45.32
70909;BME280;58554;52.006;5.926;2022-08-21T12:08:28;100745.81;;;25.12;45.32
70909;BME280;58554;52.006;5.926;2022-08-21T12:11:04;100756.56;;;25.20;44.63
70909;BME280;58554;52.006;5.926;2022-08-21T12:13:37;100751.25;;;25.27;44.53
70909;BME280;58554;52.006;5.926;2022-08-21T12:16:10;100764.69;;;25.35;44.41
70909;BME280;58554;52.006;5.926;2022-08-21T12:18:39;100751.06;;;25.43;44.35
70909;BME280;58554;52.006;5.926;2022-08-21T12:21:20;100759.94;;;25.52;43.87
70909;BME280;58554;52.006;5.926;2022-08-21T12:24:00;100762.97;;;25.57;43.24
70909;BME280;58554;52.006;5.926;2022-08-21T12:26:34;100764.66;;;25.58;43.69
70909;BME280;58554;52.006;5.926;2022-08-21T12:29:15;100761.09;;;25.57;42.99
70909;BME280;58554;52.006;5.926;2022-08-21T12:31:52;100756.69;;;25.56;43.28
70909;BME280;58554;52.006;5.926;2022-08-21T12:34:24;100746.34;;;25.60;43.61
70909;BME280;58554;52.006;5.926;2022-08-21T12:37:00;100760.19;;;25.65;43.26
70909;BME280;58554;52.006;5.926;2022-08-21T12:39:32;100763.53;;;25.67;42.90
70909;BME280;58554;52.006;5.926;2022-08-21T12:42:06;100764.19;;;25.69;43.00
70909;BME280;58554;52.006;5.926;2022-08-21T12:44:49;100756.91;;;25.70;42.80
70909;BME280;58554;52.006;5.926;2022-08-21T12:47:30;100754.03;;;25.71;42.48
70909;BME280;58554;52.006;5.926;2022-08-21T12:50:04;100752.72;;;25.67;42.21
70909;BME280;58554;52.006;5.926;2022-08-21T12:52:40;100762.69;;;25.67;42.48
70909;BME280;58554;52.006;5.926;2022-08-21T12:55:26;100747.09;;;25.69;42.07
70909;BME280;58554;52.006;5.926;2022-08-21T12:57:55;100758.41;;;25.72;42.26
70909;BME280;58554;52.006;5.926;2022-08-21T13:00:27;100763.88;;;25.79;42.12
70909;BME280;58554;52.006;5.926;2022-08-21T13:02:56;100755.66;;;25.87;41.97
70909;BME280;58554;52.006;5.926;2022-08-21T13:05:29;100754.72;;;25.95;41.92
70909;BME280;58554;52.006;5.926;2022-08-21T13:07:59;100753.41;;;26.05;41.82
70909;BME280;58554;52.006;5.926;2022-08-21T13:10:32;100755.41;;;26.18;41.38